sensor_id;sensor_type;location;lat;lon;timestamp;temperature;humidity
11647;DHT22;5880;52.342;9.662;2024-01-07T00:02:09;3.50;73.90
11647;DHT22;5880;52.342;9.662;2024-01-07T00:04:35;3.50;74.30
11647;DHT22;5880;52.342;9.662;2024-01-07T00:07:01;3.50;74.10
11647;DHT22;5880;52.342;9.662;2024-01-07T00:09:26;3.50;73.90
11647;DHT22;5880;52.342;9.662;2024-01-07T00:11:52;3.50;73.70
11647;DHT22;5880;52.342;9.662;2024-01-07T00:14:18;3.50;73.90
11647;DHT22;5880;52.342;9.662;2024-01-07T00:16:43;3.50;73.30
11647;DHT22;5880;52.342;9.662;2024-01-07T00:19:09;3.50;73.60
11647;DHT22;5880;52.342;9.662;2024-01-07T00:21:34;3.50;74.00
11647;DHT22;5880;52.342;9.662;2024-01-07T00:24:00;3.40;73.20
11647;DHT22;5880;52.342;9.662;2024-01-07T00:26:26;3.40;73.70
11647;DHT22;5880;52.342;9.662;2024-01-07T00:28:51;3.40;72.30
11647;DHT22;5880;52.342;9.662;2024-01-07T00:31:17;3.40;72.90
11647;DHT22;5880;52.342;9.662;2024-01-07T00:33:43;3.40;72.90
11647;DHT22;5880;52.342;9.662;2024-01-07T00:36:08;3.40;72.30
11647;DHT22;5880;52.342;9.662;2024-01-07T00:38:34;3.40;72.80
11647;DHT22;5880;52.342;9.662;2024-01-07T00:41:00;3.40;72.80
11647;DHT22;5880;52.342;9.662;2024-01-07T00:43:25;3.40;73.50
11647;DHT22;5880;52.342;9.662;2024-01-07T00:45:51;4.10;73.60
11647;DHT22;5880;52.342;9.662;2024-01-07T00:48:17;3.40;73.50
11647;DHT22;5880;52.342;9.662;2024-01-07T00:50:42;3.40;73.00
11647;DHT22;5880;52.342;9.662;2024-01-07T00:53:08;3.40;72.70
11647;DHT22;5880;52.342;9.662;2024-01-07T00:55:34;3.40;72.70
11647;DHT22;5880;52.342;9.662;2024-01-07T00:58:01;3.30;72.00
11647;DHT22;5880;52.342;9.662;2024-01-07T01:00:27;3.30;72.50
11647;DHT22;5880;52.342;9.662;2024-01-07T01:02:54;3.30;73.30
11647;DHT22;5880;52.342;9.662;2024-01-07T01:05:19;3.20;71.70
11647;DHT22;5880;52.342;9.662;2024-01-07T01:07:45;3.20;71.60
11647;DHT22;5880;52.342;9.662;2024-01-07T01:10:11;3.10;71.30
11647;DHT22;5880;52.342;9.662;2024-01-07T01:12:36;3.20;72.30
11647;DHT22;5880;52.342;9.662;2024-01-07T01:15:02;3.20;72.70
11647;DHT22;5880;52.342;9.662;2024-01-07T01:17:29;3.20;72.60
11647;DHT22;5880;52.342;9.662;2024-01-07T01:19:55;3.20;73.10
11647;DHT22;5880;52.342;9.662;2024-01-07T01:22:21;3.30;72.90
11647;DHT22;5880;52.342;9.662;2024-01-07T01:24:46;3.20;72.50
11647;DHT22;5880;52.342;9.662;2024-01-07T01:27:14;3.20;72.70
11647;DHT22;5880;52.342;9.662;2024-01-07T01:29:40;3.20;73.20
11647;DHT22;5880;52.342;9.662;2024-01-07T01:32:06;3.20;72.80
11647;DHT22;5880;52.342;9.662;2024-01-07T01:34:32;3.20;73.30
11647;DHT22;5880;52.342;9.662;2024-01-07T01:36:58;3.20;72.80
11647;DHT22;5880;52.342;9.662;2024-01-07T01:39:23;3.20;72.70
11647;DHT22;5880;52.342;9.662;2024-01-07T01:41:49;3.10;71.50
11647;DHT22;5880;52.342;9.662;2024-01-07T01:44:14;3.10;71.90
11647;DHT22;5880;52.342;9.662;2024-01-07T01:46:40;3.10;72.60
11647;DHT22;5880;52.342;9.662;2024-01-07T01:49:07;3.10;72.80
11647;DHT22;5880;52.342;9.662;2024-01-07T01:51:34;3.10;73.50
11647;DHT22;5880;52.342;9.662;2024-01-07T01:54:01;3.10;73.70
11647;DHT22;5880;52.342;9.662;2024-01-07T01:56:29;3.10;73.20
11647;DHT22;5880;52.342;9.662;2024-01-07T01:58:55;3.10;72.20
11647;DHT22;5880;52.342;9.662;2024-01-07T02:01:22;3.10;72.20
11647;DHT22;5880;52.342;9.662;2024-01-07T02:03:48;3.10;72.30
11647;DHT22;5880;52.342;9.662;2024-01-07T02:06:15;3.10;72.70
11647;DHT22;5880;52.342;9.662;2024-01-07T02:08:41;3.00;72.20
11647;DHT22;5880;52.342;9.662;2024-01-07T02:11:21;3.10;72.30
11647;DHT22;5880;52.342;9.662;2024-01-07T02:13:47;3.00;72.00
11647;DHT22;5880;52.342;9.662;2024-01-07T02:16:13;3.00;70.80
11647;DHT22;5880;52.342;9.662;2024-01-07T02:18:42;3.10;72.30
11647;DHT22;5880;52.342;9.662;2024-01-07T02:21:13;3.00;72.10
11647;DHT22;5880;52.342;9.662;2024-01-07T02:23:39;3.00;72.00
11647;DHT22;5880;52.342;9.662;2024-01-07T02:26:05;3.00;72.00
11647;DHT22;5880;52.342;9.662;2024-01-07T02:28:32;3.00;72.20
11647;DHT22;5880;52.342;9.662;2024-01-07T02:30:58;2.90;71.00
11647;DHT22;5880;52.342;9.662;2024-01-07T02:33:24;2.90;72.10
11647;DHT22;5880;52.342;9.662;2024-01-07T02:35:50;3.00;72.10
11647;DHT22;5880;52.342;9.662;2024-01-07T02:38:15;2.90;72.80
11647;DHT22;5880;52.342;9.662;2024-01-07T02:40:41;2.90;72.30
11647;DHT22;5880;52.342;9.662;2024-01-07T02:43:08;2.90;71.80
11647;DHT22;5880;52.342;9.662;2024-01-07T02:45:33;2.90;72.10
11647;DHT22;5880;52.342;9.662;2024-01-07T02:47:59;2.90;72.50
11647;DHT22;5880;52.342;9.662;2024-01-07T02:50:25;2.90;72.90
11647;DHT22;5880;52.342;9.662;2024-01-07T02:52:50;2.90;72.90
11647;DHT22;5880;52.342;9.662;2024-01-07T02:55:16;2.90;72.30
11647;DHT22;5880;52.342;9.662;2024-01-07T02:57:42;2.90;72.30
11647;DHT22;5880;52.342;9.662;2024-01-07T03:00:08;2.90;71.80
11647;DHT22;5880;52.342;9.662;2024-01-07T03:02:34;2.90;72.90
11647;DHT22;5880;52.342;9.662;2024-01-07T03:04:59;2.90;73.00
11647;DHT22;5880;52.342;9.662;2024-01-07T03:07:25;2.90;72.20
11647;DHT22;5880;52.342;9.662;2024-01-07T03:09:51;2.80;72.00
11647;DHT22;5880;52.342;9.662;2024-01-07T03:12:16;2.80;71.30
11647;DHT22;5880;52.342;9.662;2024-01-07T03:14:42;2.80;71.60
11647;DHT22;5880;52.342;9.662;2024-01-07T03:17:10;2.80;71.50
11647;DHT22;5880;52.342;9.662;2024-01-07T03:19:37;2.80;72.10
11647;DHT22;5880;52.342;9.662;2024-01-07T03:22:03;2.70;72.10
11647;DHT22;5880;52.342;9.662;2024-01-07T03:24:31;2.80;72.80
11647;DHT22;5880;52.342;9.662;2024-01-07T03:26:57;2.80;72.60
11647;DHT22;5880;52.342;9.662;2024-01-07T03:29:22;2.80;71.90
11647;DHT22;5880;52.342;9.662;2024-01-07T03:31:48;2.70;71.60
11647;DHT22;5880;52.342;9.662;2024-01-07T03:34:13;2.70;72.00
11647;DHT22;5880;52.342;9.662;2024-01-07T03:36:39;2.80;72.10
11647;DHT22;5880;52.342;9.662;2024-01-07T03:39:05;2.80;72.80
11647;DHT22;5880;52.342;9.662;2024-01-07T03:41:30;2.80;72.90
11647;DHT22;5880;52.342;9.662;2024-01-07T03:43:56;2.70;72.70
11647;DHT22;5880;52.342;9.662;2024-01-07T03:46:22;2.80;73.00
11647;DHT22;5880;52.342;9.662;2024-01-07T03:48:47;2.70;72.30
11647;DHT22;5880;52.342;9.662;2024-01-07T03:51:13;2.70;72.30
11647;DHT22;5880;52.342;9.662;2024-01-07T03:53:39;2.70;72.30
11647;DHT22;5880;52.342;9.662;2024-01-07T03:56:05;2.70;72.10
11647;DHT22;5880;52.342;9.662;2024-01-07T03:58:31;2.70;72.60
11647;DHT22;5880;52.342;9.662;2024-01-07T04:00:57;2.70;72.20
11647;DHT22;5880;52.342;9.662;2024-01-07T04:03:23;2.70;72.30
11647;DHT22;5880;52.342;9.662;2024-01-07T04:05:48;2.70;72.30
11647;DHT22;5880;52.342;9.662;2024-01-07T04:08:14;2.70;72.40
11647;DHT22;5880;52.342;9.662;2024-01-07T04:10:41;2.70;71.10
11647;DHT22;5880;52.342;9.662;2024-01-07T04:13:07;2.60;71.40
11647;DHT22;5880;52.342;9.662;2024-01-07T04:15:33;2.60;71.40
11647;DHT22;5880;52.342;9.662;2024-01-07T04:18:04;2.60;71.70
11647;DHT22;5880;52.342;9.662;2024-01-07T04:20:30;2.60;72.50
11647;DHT22;5880;52.342;9.662;2024-01-07T04:22:57;2.40;71.50
11647;DHT22;5880;52.342;9.662;2024-01-07T04:25:26;2.50;70.00
11647;DHT22;5880;52.342;9.662;2024-01-07T04:27:52;2.50;69.80
11647;DHT22;5880;52.342;9.662;2024-01-07T04:30:17;2.40;70.00
11647;DHT22;5880;52.342;9.662;2024-01-07T04:32:43;2.40;70.10
11647;DHT22;5880;52.342;9.662;2024-01-07T04:35:09;2.40;69.60
11647;DHT22;5880;52.342;9.662;2024-01-07T04:37:35;2.40;70.40
11647;DHT22;5880;52.342;9.662;2024-01-07T04:40:02;2.40;69.80
11647;DHT22;5880;52.342;9.662;2024-01-07T04:42:28;2.40;70.70
11647;DHT22;5880;52.342;9.662;2024-01-07T04:44:54;2.40;69.90
11647;DHT22;5880;52.342;9.662;2024-01-07T04:47:30;2.40;70.00
11647;DHT22;5880;52.342;9.662;2024-01-07T04:49:57;2.40;71.40
11647;DHT22;5880;52.342;9.662;2024-01-07T04:52:23;2.40;71.60
11647;DHT22;5880;52.342;9.662;2024-01-07T04:54:53;2.40;71.40
11647;DHT22;5880;52.342;9.662;2024-01-07T04:57:20;2.50;71.50
11647;DHT22;5880;52.342;9.662;2024-01-07T04:59:50;2.50;70.70
11647;DHT22;5880;52.342;9.662;2024-01-07T05:02:17;2.50;71.50
11647;DHT22;5880;52.342;9.662;2024-01-07T05:04:42;2.50;70.80
11647;DHT22;5880;52.342;9.662;2024-01-07T05:07:08;2.50;71.00
11647;DHT22;5880;52.342;9.662;2024-01-07T05:09:34;2.50;70.90
11647;DHT22;5880;52.342;9.662;2024-01-07T05:12:00;2.40;69.50
11647;DHT22;5880;52.342;9.662;2024-01-07T05:14:26;2.40;69.20
11647;DHT22;5880;52.342;9.662;2024-01-07T05:16:53;2.50;70.50
11647;DHT22;5880;52.342;9.662;2024-01-07T05:19:20;2.50;70.80
11647;DHT22;5880;52.342;9.662;2024-01-07T05:21:45;2.50;70.50
11647;DHT22;5880;52.342;9.662;2024-01-07T05:24:11;2.50;70.10
11647;DHT22;5880;52.342;9.662;2024-01-07T05:26:41;2.50;70.00
11647;DHT22;5880;52.342;9.662;2024-01-07T05:29:08;2.40;69.60
11647;DHT22;5880;52.342;9.662;2024-01-07T05:31:33;2.40;69.90
11647;DHT22;5880;52.342;9.662;2024-01-07T05:33:59;2.50;70.20
11647;DHT22;5880;52.342;9.662;2024-01-07T05:36:25;2.40;69.50
11647;DHT22;5880;52.342;9.662;2024-01-07T05:38:51;2.40;70.80
11647;DHT22;5880;52.342;9.662;2024-01-07T05:41:16;2.40;70.90
11647;DHT22;5880;52.342;9.662;2024-01-07T05:43:42;2.40;68.00
11647;DHT22;5880;52.342;9.662;2024-01-07T05:46:07;2.40;68.90
11647;DHT22;5880;52.342;9.662;2024-01-07T05:48:44;2.40;68.80
11647;DHT22;5880;52.342;9.662;2024-01-07T05:51:11;2.40;69.20
11647;DHT22;5880;52.342;9.662;2024-01-07T05:53:38;2.40;69.50
11647;DHT22;5880;52.342;9.662;2024-01-07T05:56:04;2.40;70.10
11647;DHT22;5880;52.342;9.662;2024-01-07T05:58:30;2.30;68.90
11647;DHT22;5880;52.342;9.662;2024-01-07T06:00:55;2.30;68.90
11647;DHT22;5880;52.342;9.662;2024-01-07T06:03:21;2.30;68.50
11647;DHT22;5880;52.342;9.662;2024-01-07T06:05:47;2.30;68.10
11647;DHT22;5880;52.342;9.662;2024-01-07T06:08:12;2.30;68.40
11647;DHT22;5880;52.342;9.662;2024-01-07T06:10:39;2.20;65.60
11647;DHT22;5880;52.342;9.662;2024-01-07T06:13:05;2.20;66.90
11647;DHT22;5880;52.342;9.662;2024-01-07T06:15:31;2.20;67.10
11647;DHT22;5880;52.342;9.662;2024-01-07T06:17:57;2.20;67.00
11647;DHT22;5880;52.342;9.662;2024-01-07T06:20:23;2.20;68.20
11647;DHT22;5880;52.342;9.662;2024-01-07T06:22:49;2.20;69.40
11647;DHT22;5880;52.342;9.662;2024-01-07T06:25:14;2.20;69.20
11647;DHT22;5880;52.342;9.662;2024-01-07T06:27:40;2.20;69.00
11647;DHT22;5880;52.342;9.662;2024-01-07T06:30:07;2.10;67.90
11647;DHT22;5880;52.342;9.662;2024-01-07T06:32:33;2.10;67.00
11647;DHT22;5880;52.342;9.662;2024-01-07T06:34:59;2.00;66.50
11647;DHT22;5880;52.342;9.662;2024-01-07T06:37:25;2.00;65.70
11647;DHT22;5880;52.342;9.662;2024-01-07T06:39:54;2.00;66.80
11647;DHT22;5880;52.342;9.662;2024-01-07T06:42:20;2.00;66.40
11647;DHT22;5880;52.342;9.662;2024-01-07T06:44:46;2.00;67.10
11647;DHT22;5880;52.342;9.662;2024-01-07T06:47:11;2.00;66.70
11647;DHT22;5880;52.342;9.662;2024-01-07T06:49:37;1.90;66.50
11647;DHT22;5880;52.342;9.662;2024-01-07T06:52:04;1.90;67.70
11647;DHT22;5880;52.342;9.662;2024-01-07T06:54:30;1.90;65.90
11647;DHT22;5880;52.342;9.662;2024-01-07T06:56:56;1.90;66.60
11647;DHT22;5880;52.342;9.662;2024-01-07T06:59:21;1.90;67.80
11647;DHT22;5880;52.342;9.662;2024-01-07T07:01:47;1.80;65.20
11647;DHT22;5880;52.342;9.662;2024-01-07T07:04:13;1.90;67.10
11647;DHT22;5880;52.342;9.662;2024-01-07T07:06:38;1.90;67.50
11647;DHT22;5880;52.342;9.662;2024-01-07T07:09:04;1.90;66.30
11647;DHT22;5880;52.342;9.662;2024-01-07T07:11:30;1.90;66.80
11647;DHT22;5880;52.342;9.662;2024-01-07T07:13:56;1.90;68.30
11647;DHT22;5880;52.342;9.662;2024-01-07T07:16:22;1.80;66.30
11647;DHT22;5880;52.342;9.662;2024-01-07T07:18:48;1.80;66.90
11647;DHT22;5880;52.342;9.662;2024-01-07T07:21:13;1.80;66.70
11647;DHT22;5880;52.342;9.662;2024-01-07T07:23:39;2.00;68.10
11647;DHT22;5880;52.342;9.662;2024-01-07T07:26:04;1.80;68.90
11647;DHT22;5880;52.342;9.662;2024-01-07T07:28:31;1.80;67.90
11647;DHT22;5880;52.342;9.662;2024-01-07T07:30:56;1.80;69.00
11647;DHT22;5880;52.342;9.662;2024-01-07T07:33:22;1.80;67.10
11647;DHT22;5880;52.342;9.662;2024-01-07T07:35:47;1.80;68.00
11647;DHT22;5880;52.342;9.662;2024-01-07T07:38:13;1.90;68.80
11647;DHT22;5880;52.342;9.662;2024-01-07T07:40:39;1.90;68.20
11647;DHT22;5880;52.342;9.662;2024-01-07T07:43:05;1.80;67.50
11647;DHT22;5880;52.342;9.662;2024-01-07T07:45:31;1.80;67.50
11647;DHT22;5880;52.342;9.662;2024-01-07T07:47:56;1.80;68.70
11647;DHT22;5880;52.342;9.662;2024-01-07T07:50:22;1.80;67.60
11647;DHT22;5880;52.342;9.662;2024-01-07T07:52:48;1.80;68.10
11647;DHT22;5880;52.342;9.662;2024-01-07T07:55:13;2.60;68.90
11647;DHT22;5880;52.342;9.662;2024-01-07T07:57:39;1.80;69.20
11647;DHT22;5880;52.342;9.662;2024-01-07T08:00:06;2.00;68.60
11647;DHT22;5880;52.342;9.662;2024-01-07T08:02:32;1.80;68.60
11647;DHT22;5880;52.342;9.662;2024-01-07T08:04:58;1.50;68.80
11647;DHT22;5880;52.342;9.662;2024-01-07T08:07:24;1.90;69.70
11647;DHT22;5880;52.342;9.662;2024-01-07T08:09:50;1.90;68.60
11647;DHT22;5880;52.342;9.662;2024-01-07T08:12:16;1.90;68.10
11647;DHT22;5880;52.342;9.662;2024-01-07T08:14:42;1.90;69.20
11647;DHT22;5880;52.342;9.662;2024-01-07T08:17:08;1.90;68.90
11647;DHT22;5880;52.342;9.662;2024-01-07T08:19:33;1.90;68.40
11647;DHT22;5880;52.342;9.662;2024-01-07T08:22:01;1.90;68.30
11647;DHT22;5880;52.342;9.662;2024-01-07T08:24:26;2.00;69.00
11647;DHT22;5880;52.342;9.662;2024-01-07T08:26:52;1.90;68.10
11647;DHT22;5880;52.342;9.662;2024-01-07T08:29:18;1.90;68.70
11647;DHT22;5880;52.342;9.662;2024-01-07T08:31:44;1.90;69.40
11647;DHT22;5880;52.342;9.662;2024-01-07T08:34:10;1.90;68.80
11647;DHT22;5880;52.342;9.662;2024-01-07T08:36:35;1.50;68.00
11647;DHT22;5880;52.342;9.662;2024-01-07T08:39:01;2.00;68.60
11647;DHT22;5880;52.342;9.662;2024-01-07T08:41:27;2.00;69.20
11647;DHT22;5880;52.342;9.662;2024-01-07T08:43:52;2.00;69.30
11647;DHT22;5880;52.342;9.662;2024-01-07T08:46:21;2.00;69.30
11647;DHT22;5880;52.342;9.662;2024-01-07T08:48:47;2.10;68.70
11647;DHT22;5880;52.342;9.662;2024-01-07T08:51:13;2.10;68.50
11647;DHT22;5880;52.342;9.662;2024-01-07T08:53:39;2.10;69.60
11647;DHT22;5880;52.342;9.662;2024-01-07T08:56:05;2.10;70.10
11647;DHT22;5880;52.342;9.662;2024-01-07T08:58:32;2.10;69.30
11647;DHT22;5880;52.342;9.662;2024-01-07T09:00:58;2.10;69.20
11647;DHT22;5880;52.342;9.662;2024-01-07T09:03:23;2.10;69.30
11647;DHT22;5880;52.342;9.662;2024-01-07T09:05:49;2.20;70.20
11647;DHT22;5880;52.342;9.662;2024-01-07T09:08:15;2.20;69.90
11647;DHT22;5880;52.342;9.662;2024-01-07T09:10:40;2.20;69.80
11647;DHT22;5880;52.342;9.662;2024-01-07T09:13:06;2.20;68.10
11647;DHT22;5880;52.342;9.662;2024-01-07T09:15:32;2.20;69.10
11647;DHT22;5880;52.342;9.662;2024-01-07T09:17:57;2.30;69.40
11647;DHT22;5880;52.342;9.662;2024-01-07T09:20:23;2.30;69.70
11647;DHT22;5880;52.342;9.662;2024-01-07T09:22:49;2.30;70.10
11647;DHT22;5880;52.342;9.662;2024-01-07T09:25:15;2.30;70.10
11647;DHT22;5880;52.342;9.662;2024-01-07T09:27:42;2.40;69.70
11647;DHT22;5880;52.342;9.662;2024-01-07T09:30:08;2.40;69.30
11647;DHT22;5880;52.342;9.662;2024-01-07T09:32:37;2.40;69.60
11647;DHT22;5880;52.342;9.662;2024-01-07T09:35:02;3.60;70.10
11647;DHT22;5880;52.342;9.662;2024-01-07T09:37:31;2.40;70.00
11647;DHT22;5880;52.342;9.662;2024-01-07T09:39:56;2.40;70.40
11647;DHT22;5880;52.342;9.662;2024-01-07T09:42:22;2.50;70.50
11647;DHT22;5880;52.342;9.662;2024-01-07T09:44:48;2.50;70.10
11647;DHT22;5880;52.342;9.662;2024-01-07T09:47:16;2.50;70.50
11647;DHT22;5880;52.342;9.662;2024-01-07T09:49:43;2.50;70.60
11647;DHT22;5880;52.342;9.662;2024-01-07T09:52:10;2.50;70.30
11647;DHT22;5880;52.342;9.662;2024-01-07T09:54:38;2.60;70.70
11647;DHT22;5880;52.342;9.662;2024-01-07T09:57:05;2.60;70.90
11647;DHT22;5880;52.342;9.662;2024-01-07T09:59:33;2.60;70.30
11647;DHT22;5880;52.342;9.662;2024-01-07T10:02:01;2.60;70.20
11647;DHT22;5880;52.342;9.662;2024-01-07T10:04:27;1.80;69.60
11647;DHT22;5880;52.342;9.662;2024-01-07T10:06:54;2.70;69.60
11647;DHT22;5880;52.342;9.662;2024-01-07T10:09:23;2.70;70.20
11647;DHT22;5880;52.342;9.662;2024-01-07T10:11:51;2.70;70.20
11647;DHT22;5880;52.342;9.662;2024-01-07T10:14:17;2.80;70.50
11647;DHT22;5880;52.342;9.662;2024-01-07T10:16:43;2.80;70.40
11647;DHT22;5880;52.342;9.662;2024-01-07T10:19:08;2.80;70.50
11647;DHT22;5880;52.342;9.662;2024-01-07T10:21:34;2.90;71.00
11647;DHT22;5880;52.342;9.662;2024-01-07T10:24:10;2.90;71.10
11647;DHT22;5880;52.342;9.662;2024-01-07T10:26:40;2.90;70.50
11647;DHT22;5880;52.342;9.662;2024-01-07T10:29:09;2.90;71.00
11647;DHT22;5880;52.342;9.662;2024-01-07T10:31:37;2.90;71.30
11647;DHT22;5880;52.342;9.662;2024-01-07T10:34:07;2.90;71.40
11647;DHT22;5880;52.342;9.662;2024-01-07T10:36:34;3.00;71.20
11647;DHT22;5880;52.342;9.662;2024-01-07T10:39:02;3.00;71.20
11647;DHT22;5880;52.342;9.662;2024-01-07T10:41:29;3.00;71.30
11647;DHT22;5880;52.342;9.662;2024-01-07T10:43:56;3.00;71.20
11647;DHT22;5880;52.342;9.662;2024-01-07T10:46:22;3.10;71.30
11647;DHT22;5880;52.342;9.662;2024-01-07T10:49:00;3.10;71.10
11647;DHT22;5880;52.342;9.662;2024-01-07T10:51:33;3.10;70.70
11647;DHT22;5880;52.342;9.662;2024-01-07T10:54:00;3.10;70.70
11647;DHT22;5880;52.342;9.662;2024-01-07T10:56:33;3.10;70.80
11647;DHT22;5880;52.342;9.662;2024-01-07T10:59:07;3.10;70.60
11647;DHT22;5880;52.342;9.662;2024-01-07T11:01:33;3.20;70.60
11647;DHT22;5880;52.342;9.662;2024-01-07T11:04:06;3.10;70.80
11647;DHT22;5880;52.342;9.662;2024-01-07T11:07:03;3.20;71.20
11647;DHT22;5880;52.342;9.662;2024-01-07T11:09:43;3.20;70.60
11647;DHT22;5880;52.342;9.662;2024-01-07T11:12:20;3.20;70.90
11647;DHT22;5880;52.342;9.662;2024-01-07T11:14:46;3.20;70.80
11647;DHT22;5880;52.342;9.662;2024-01-07T11:20:21;3.30;70.50
11647;DHT22;5880;52.342;9.662;2024-01-07T11:22:48;3.30;70.50
11647;DHT22;5880;52.342;9.662;2024-01-07T11:25:28;3.30;71.20
11647;DHT22;5880;52.342;9.662;2024-01-07T11:27:57;3.30;70.50
11647;DHT22;5880;52.342;9.662;2024-01-07T11:30:25;3.30;71.20
11647;DHT22;5880;52.342;9.662;2024-01-07T11:33:01;3.30;71.10
11647;DHT22;5880;52.342;9.662;2024-01-07T11:35:53;3.30;71.00
11647;DHT22;5880;52.342;9.662;2024-01-07T11:38:23;3.30;70.50
11647;DHT22;5880;52.342;9.662;2024-01-07T11:40:49;3.30;71.20
11647;DHT22;5880;52.342;9.662;2024-01-07T11:43:16;3.30;71.00
11647;DHT22;5880;52.342;9.662;2024-01-07T11:45:42;3.30;71.30
11647;DHT22;5880;52.342;9.662;2024-01-07T11:48:08;3.30;71.20
11647;DHT22;5880;52.342;9.662;2024-01-07T11:50:35;3.30;71.40
11647;DHT22;5880;52.342;9.662;2024-01-07T11:53:01;3.30;71.40
11647;DHT22;5880;52.342;9.662;2024-01-07T11:55:27;3.40;71.20
11647;DHT22;5880;52.342;9.662;2024-01-07T11:57:55;3.50;70.90
11647;DHT22;5880;52.342;9.662;2024-01-07T12:00:21;3.40;71.00
11647;DHT22;5880;52.342;9.662;2024-01-07T12:02:47;3.10;71.30
11647;DHT22;5880;52.342;9.662;2024-01-07T12:05:13;3.40;71.50
11647;DHT22;5880;52.342;9.662;2024-01-07T12:07:41;3.40;71.40
11647;DHT22;5880;52.342;9.662;2024-01-07T12:10:08;3.40;71.60
11647;DHT22;5880;52.342;9.662;2024-01-07T12:12:40;3.40;71.50
11647;DHT22;5880;52.342;9.662;2024-01-07T12:15:08;3.40;71.30
11647;DHT22;5880;52.342;9.662;2024-01-07T12:17:34;3.40;71.30
11647;DHT22;5880;52.342;9.662;2024-01-07T12:20:00;3.50;71.40
11647;DHT22;5880;52.342;9.662;2024-01-07T12:22:30;3.40;71.60
11647;DHT22;5880;52.342;9.662;2024-01-07T12:25:06;3.50;71.70
11647;DHT22;5880;52.342;9.662;2024-01-07T12:27:32;3.50;70.90
11647;DHT22;5880;52.342;9.662;2024-01-07T12:29:59;3.50;71.50
11647;DHT22;5880;52.342;9.662;2024-01-07T12:32:30;3.50;71.40
11647;DHT22;5880;52.342;9.662;2024-01-07T12:34:59;3.50;71.40
11647;DHT22;5880;52.342;9.662;2024-01-07T12:37:28;3.50;71.60
11647;DHT22;5880;52.342;9.662;2024-01-07T12:39:54;3.50;71.40
11647;DHT22;5880;52.342;9.662;2024-01-07T12:42:20;3.50;71.20
11647;DHT22;5880;52.342;9.662;2024-01-07T12:44:49;3.50;71.60
11647;DHT22;5880;52.342;9.662;2024-01-07T12:47:15;3.50;71.60
11647;DHT22;5880;52.342;9.662;2024-01-07T12:49:41;3.50;71.70
11647;DHT22;5880;52.342;9.662;2024-01-07T12:52:07;3.50;71.70
11647;DHT22;5880;52.342;9.662;2024-01-07T12:54:34;3.50;71.40
11647;DHT22;5880;52.342;9.662;2024-01-07T12:57:00;3.60;71.60
11647;DHT22;5880;52.342;9.662;2024-01-07T12:59:26;3.60;71.90
11647;DHT22;5880;52.342;9.662;2024-01-07T13:01:51;3.60;71.80
11647;DHT22;5880;52.342;9.662;2024-01-07T13:04:18;3.60;71.40
11647;DHT22;5880;52.342;9.662;2024-01-07T13:06:44;3.60;71.60
11647;DHT22;5880;52.342;9.662;2024-01-07T13:09:11;3.60;71.50
11647;DHT22;5880;52.342;9.662;2024-01-07T13:11:37;3.60;71.70
11647;DHT22;5880;52.342;9.662;2024-01-07T13:14:02;3.70;72.50
11647;DHT22;5880;52.342;9.662;2024-01-07T13:16:28;3.70;72.10
11647;DHT22;5880;52.342;9.662;2024-01-07T13:18:54;3.70;72.20
11647;DHT22;5880;52.342;9.662;2024-01-07T13:21:21;3.70;72.30
11647;DHT22;5880;52.342;9.662;2024-01-07T13:23:47;4.80;72.90
11647;DHT22;5880;52.342;9.662;2024-01-07T13:26:13;3.80;72.20
11647;DHT22;5880;52.342;9.662;2024-01-07T13:28:41;3.80;71.70
11647;DHT22;5880;52.342;9.662;2024-01-07T13:31:07;3.80;72.60
11647;DHT22;5880;52.342;9.662;2024-01-07T13:33:34;3.80;71.70
11647;DHT22;5880;52.342;9.662;2024-01-07T13:36:01;3.80;71.50
11647;DHT22;5880;52.342;9.662;2024-01-07T13:38:28;3.80;71.50
11647;DHT22;5880;52.342;9.662;2024-01-07T13:40:53;3.90;71.70
11647;DHT22;5880;52.342;9.662;2024-01-07T13:43:20;3.90;71.60
11647;DHT22;5880;52.342;9.662;2024-01-07T13:45:45;3.90;71.80
11647;DHT22;5880;52.342;9.662;2024-01-07T13:48:11;3.80;71.50
11647;DHT22;5880;52.342;9.662;2024-01-07T13:50:36;3.90;71.80
11647;DHT22;5880;52.342;9.662;2024-01-07T13:53:02;3.90;71.60
11647;DHT22;5880;52.342;9.662;2024-01-07T13:55:28;3.90;71.60
11647;DHT22;5880;52.342;9.662;2024-01-07T13:57:53;3.90;71.70
11647;DHT22;5880;52.342;9.662;2024-01-07T14:00:19;3.90;71.80
11647;DHT22;5880;52.342;9.662;2024-01-07T14:02:46;3.90;71.70
11647;DHT22;5880;52.342;9.662;2024-01-07T14:05:12;3.90;70.40
11647;DHT22;5880;52.342;9.662;2024-01-07T14:07:38;3.80;70.80
11647;DHT22;5880;52.342;9.662;2024-01-07T14:10:06;3.80;71.30
11647;DHT22;5880;52.342;9.662;2024-01-07T14:12:34;3.80;70.50
11647;DHT22;5880;52.342;9.662;2024-01-07T14:14:59;3.80;70.70
11647;DHT22;5880;52.342;9.662;2024-01-07T14:17:26;3.80;71.20
11647;DHT22;5880;52.342;9.662;2024-01-07T14:19:51;3.80;71.10
11647;DHT22;5880;52.342;9.662;2024-01-07T14:22:19;3.80;71.00
11647;DHT22;5880;52.342;9.662;2024-01-07T14:24:46;3.80;71.00
11647;DHT22;5880;52.342;9.662;2024-01-07T14:27:17;3.70;70.10
11647;DHT22;5880;52.342;9.662;2024-01-07T14:29:43;3.70;70.50
11647;DHT22;5880;52.342;9.662;2024-01-07T14:32:10;4.60;70.90
11647;DHT22;5880;52.342;9.662;2024-01-07T14:34:38;3.70;70.60
11647;DHT22;5880;52.342;9.662;2024-01-07T14:37:07;3.70;70.70
11647;DHT22;5880;52.342;9.662;2024-01-07T14:39:35;3.60;70.80
11647;DHT22;5880;52.342;9.662;2024-01-07T14:42:02;3.60;70.80
11647;DHT22;5880;52.342;9.662;2024-01-07T14:44:28;3.60;70.60
11647;DHT22;5880;52.342;9.662;2024-01-07T14:46:54;3.60;70.60
11647;DHT22;5880;52.342;9.662;2024-01-07T14:49:20;3.50;70.30
11647;DHT22;5880;52.342;9.662;2024-01-07T14:51:45;3.50;70.20
11647;DHT22;5880;52.342;9.662;2024-01-07T14:54:12;3.50;70.50
11647;DHT22;5880;52.342;9.662;2024-01-07T14:56:38;3.50;70.50
11647;DHT22;5880;52.342;9.662;2024-01-07T14:59:04;3.50;69.60
11647;DHT22;5880;52.342;9.662;2024-01-07T15:01:30;3.40;69.70
11647;DHT22;5880;52.342;9.662;2024-01-07T15:03:56;3.40;70.40
11647;DHT22;5880;52.342;9.662;2024-01-07T15:06:21;3.40;69.90
11647;DHT22;5880;52.342;9.662;2024-01-07T15:08:47;3.40;70.70
11647;DHT22;5880;52.342;9.662;2024-01-07T15:11:14;3.40;70.20
11647;DHT22;5880;52.342;9.662;2024-01-07T15:13:40;3.40;70.40
11647;DHT22;5880;52.342;9.662;2024-01-07T15:16:06;3.30;70.50
11647;DHT22;5880;52.342;9.662;2024-01-07T15:18:32;3.30;70.00
11647;DHT22;5880;52.342;9.662;2024-01-07T15:20:58;3.30;70.10
11647;DHT22;5880;52.342;9.662;2024-01-07T15:23:23;3.30;70.00
11647;DHT22;5880;52.342;9.662;2024-01-07T15:25:49;3.20;70.20
11647;DHT22;5880;52.342;9.662;2024-01-07T15:28:15;3.20;70.50
11647;DHT22;5880;52.342;9.662;2024-01-07T15:30:40;3.20;70.60
11647;DHT22;5880;52.342;9.662;2024-01-07T15:33:06;3.20;70.50
11647;DHT22;5880;52.342;9.662;2024-01-07T15:35:32;3.20;70.20
11647;DHT22;5880;52.342;9.662;2024-01-07T15:37:57;3.10;70.30
11647;DHT22;5880;52.342;9.662;2024-01-07T15:40:23;3.10;70.40
11647;DHT22;5880;52.342;9.662;2024-01-07T15:42:50;3.10;70.10
11647;DHT22;5880;52.342;9.662;2024-01-07T15:45:16;3.10;70.00
11647;DHT22;5880;52.342;9.662;2024-01-07T15:47:42;3.00;70.10
11647;DHT22;5880;52.342;9.662;2024-01-07T15:50:07;3.00;70.30
11647;DHT22;5880;52.342;9.662;2024-01-07T15:52:33;3.00;70.40
11647;DHT22;5880;52.342;9.662;2024-01-07T15:54:59;3.00;70.20
11647;DHT22;5880;52.342;9.662;2024-01-07T15:57:26;2.90;70.20
11647;DHT22;5880;52.342;9.662;2024-01-07T15:59:51;2.90;70.40
11647;DHT22;5880;52.342;9.662;2024-01-07T16:02:17;2.90;70.40